Terminal Aerodrome Forecast
Issued by NWS Atlanta, GA

Home | Current Version | Previous Version | Text Only | Print | Product List | Glossary On
Versions: 1 2 3 4 5 6 7 8 9 10 11 12 13 14 15 16 17 18 19
302
FTUS42 KFFC 231943 AAA
TAFCSG
TAF AMD
KCSG 231943Z 2320/2418 23014G22KT P6SM SCT040
      TEMPO 2401/2403 5SM TSRA BKN035CB
     FM240600 23007KT P6SM BKN035
     FM241000 23006KT P6SM VCSH BKN008
     FM241500 26006KT P6SM VCSH BKN015=

USA.gov is the U.S. government's official web portal to all federal, state and local government web resources and services.